sensor_id;sensor_type;location;lat;lon;timestamp;P1;durP1;ratioP1;P2;durP2;ratioP2
16466;SDS011;8344;47.560;9.710;2023-06-22T00:02:04;0.10;;;0.10;;
16466;SDS011;8344;47.560;9.710;2023-06-22T00:04:29;0.20;;;0.20;;
16466;SDS011;8344;47.560;9.710;2023-06-22T00:06:54;0.10;;;0.10;;
16466;SDS011;8344;47.560;9.710;2023-06-22T00:09:20;0.20;;;0.20;;
16466;SDS011;8344;47.560;9.710;2023-06-22T00:11:45;0.20;;;0.20;;
16466;SDS011;8344;47.560;9.710;2023-06-22T00:14:10;0.20;;;0.20;;
16466;SDS011;8344;47.560;9.710;2023-06-22T00:16:35;0.20;;;0.20;;
16466;SDS011;8344;47.560;9.710;2023-06-22T00:19:01;0.20;;;0.20;;
16466;SDS011;8344;47.560;9.710;2023-06-22T00:21:27;0.20;;;0.20;;
16466;SDS011;8344;47.560;9.710;2023-06-22T00:23:52;0.20;;;0.20;;
16466;SDS011;8344;47.560;9.710;2023-06-22T00:26:18;0.20;;;0.20;;
16466;SDS011;8344;47.560;9.710;2023-06-22T00:28:44;0.20;;;0.20;;
16466;SDS011;8344;47.560;9.710;2023-06-22T00:31:09;0.20;;;0.20;;
16466;SDS011;8344;47.560;9.710;2023-06-22T00:33:34;0.20;;;0.20;;
16466;SDS011;8344;47.560;9.710;2023-06-22T00:36:00;0.17;;;0.17;;
16466;SDS011;8344;47.560;9.710;2023-06-22T00:38:25;0.10;;;0.10;;
16466;SDS011;8344;47.560;9.710;2023-06-22T00:40:50;0.10;;;0.10;;
16466;SDS011;8344;47.560;9.710;2023-06-22T00:43:15;0.10;;;0.10;;
16466;SDS011;8344;47.560;9.710;2023-06-22T00:45:41;0.10;;;0.10;;
16466;SDS011;8344;47.560;9.710;2023-06-22T00:48:06;0.20;;;0.20;;
16466;SDS011;8344;47.560;9.710;2023-06-22T00:50:32;0.20;;;0.20;;
16466;SDS011;8344;47.560;9.710;2023-06-22T00:52:59;0.20;;;0.20;;
16466;SDS011;8344;47.560;9.710;2023-06-22T00:55:36;0.20;;;0.20;;
16466;SDS011;8344;47.560;9.710;2023-06-22T00:58:03;0.20;;;0.20;;
16466;SDS011;8344;47.560;9.710;2023-06-22T01:00:33;0.20;;;0.20;;
16466;SDS011;8344;47.560;9.710;2023-06-22T01:02:58;0.25;;;0.25;;
16466;SDS011;8344;47.560;9.710;2023-06-22T01:05:23;0.10;;;0.10;;
16466;SDS011;8344;47.560;9.710;2023-06-22T01:07:54;0.10;;;0.10;;
16466;SDS011;8344;47.560;9.710;2023-06-22T01:10:25;0.20;;;0.20;;
16466;SDS011;8344;47.560;9.710;2023-06-22T01:12:58;0.20;;;0.20;;
16466;SDS011;8344;47.560;9.710;2023-06-22T01:15:35;0.20;;;0.20;;
16466;SDS011;8344;47.560;9.710;2023-06-22T01:18:04;0.10;;;0.10;;
16466;SDS011;8344;47.560;9.710;2023-06-22T01:20:30;0.10;;;0.10;;
16466;SDS011;8344;47.560;9.710;2023-06-22T01:23:15;0.20;;;0.20;;
16466;SDS011;8344;47.560;9.710;2023-06-22T01:28:30;0.10;;;0.10;;
16466;SDS011;8344;47.560;9.710;2023-06-22T01:31:06;0.13;;;0.13;;
16466;SDS011;8344;47.560;9.710;2023-06-22T01:33:35;0.20;;;0.20;;
16466;SDS011;8344;47.560;9.710;2023-06-22T01:36:02;0.20;;;0.20;;
16466;SDS011;8344;47.560;9.710;2023-06-22T01:38:28;0.20;;;0.20;;
16466;SDS011;8344;47.560;9.710;2023-06-22T01:40:54;0.20;;;0.20;;
16466;SDS011;8344;47.560;9.710;2023-06-22T01:43:21;0.10;;;0.10;;
16466;SDS011;8344;47.560;9.710;2023-06-22T01:45:48;0.20;;;0.20;;
16466;SDS011;8344;47.560;9.710;2023-06-22T01:48:13;0.10;;;0.10;;
16466;SDS011;8344;47.560;9.710;2023-06-22T01:50:39;0.10;;;0.10;;
16466;SDS011;8344;47.560;9.710;2023-06-22T01:53:04;0.20;;;0.20;;
16466;SDS011;8344;47.560;9.710;2023-06-22T01:55:31;0.25;;;0.25;;
16466;SDS011;8344;47.560;9.710;2023-06-22T01:57:57;0.20;;;0.20;;
16466;SDS011;8344;47.560;9.710;2023-06-22T02:00:22;0.20;;;0.20;;
16466;SDS011;8344;47.560;9.710;2023-06-22T02:02:59;0.20;;;0.20;;
16466;SDS011;8344;47.560;9.710;2023-06-22T02:05:29;0.22;;;0.22;;
16466;SDS011;8344;47.560;9.710;2023-06-22T02:08:00;0.17;;;0.17;;
16466;SDS011;8344;47.560;9.710;2023-06-22T02:10:29;0.20;;;0.20;;
16466;SDS011;8344;47.560;9.710;2023-06-22T02:12:56;0.20;;;0.20;;
16466;SDS011;8344;47.560;9.710;2023-06-22T02:15:22;0.20;;;0.20;;
16466;SDS011;8344;47.560;9.710;2023-06-22T02:17:47;0.20;;;0.20;;
16466;SDS011;8344;47.560;9.710;2023-06-22T02:20:13;0.20;;;0.20;;
16466;SDS011;8344;47.560;9.710;2023-06-22T02:22:39;0.20;;;0.20;;
16466;SDS011;8344;47.560;9.710;2023-06-22T02:25:04;0.20;;;0.20;;
16466;SDS011;8344;47.560;9.710;2023-06-22T02:27:30;0.17;;;0.17;;
16466;SDS011;8344;47.560;9.710;2023-06-22T02:29:56;0.22;;;0.22;;
16466;SDS011;8344;47.560;9.710;2023-06-22T02:32:21;0.10;;;0.10;;
16466;SDS011;8344;47.560;9.710;2023-06-22T02:34:47;0.20;;;0.20;;
16466;SDS011;8344;47.560;9.710;2023-06-22T02:37:13;0.20;;;0.20;;
16466;SDS011;8344;47.560;9.710;2023-06-22T02:39:39;0.25;;;0.25;;
16466;SDS011;8344;47.560;9.710;2023-06-22T02:42:05;0.20;;;0.20;;
16466;SDS011;8344;47.560;9.710;2023-06-22T02:44:31;0.20;;;0.20;;
16466;SDS011;8344;47.560;9.710;2023-06-22T02:46:56;0.20;;;0.20;;
16466;SDS011;8344;47.560;9.710;2023-06-22T02:49:21;0.20;;;0.20;;
16466;SDS011;8344;47.560;9.710;2023-06-22T02:51:47;0.20;;;0.20;;
16466;SDS011;8344;47.560;9.710;2023-06-22T02:54:13;0.20;;;0.20;;
16466;SDS011;8344;47.560;9.710;2023-06-22T02:56:38;0.10;;;0.10;;
16466;SDS011;8344;47.560;9.710;2023-06-22T02:59:05;0.17;;;0.17;;
16466;SDS011;8344;47.560;9.710;2023-06-22T03:01:31;0.20;;;0.20;;
16466;SDS011;8344;47.560;9.710;2023-06-22T03:04:02;0.20;;;0.20;;
16466;SDS011;8344;47.560;9.710;2023-06-22T03:06:28;0.25;;;0.25;;
16466;SDS011;8344;47.560;9.710;2023-06-22T03:11:23;0.20;;;0.20;;
16466;SDS011;8344;47.560;9.710;2023-06-22T03:13:49;0.10;;;0.10;;
16466;SDS011;8344;47.560;9.710;2023-06-22T03:16:14;0.10;;;0.10;;
16466;SDS011;8344;47.560;9.710;2023-06-22T03:18:39;0.20;;;0.20;;
16466;SDS011;8344;47.560;9.710;2023-06-22T03:21:05;0.10;;;0.10;;
16466;SDS011;8344;47.560;9.710;2023-06-22T03:23:30;0.10;;;0.10;;
16466;SDS011;8344;47.560;9.710;2023-06-22T03:25:55;0.20;;;0.20;;
16466;SDS011;8344;47.560;9.710;2023-06-22T03:28:21;0.20;;;0.20;;
16466;SDS011;8344;47.560;9.710;2023-06-22T03:30:46;0.20;;;0.20;;
16466;SDS011;8344;47.560;9.710;2023-06-22T03:33:12;0.20;;;0.20;;
16466;SDS011;8344;47.560;9.710;2023-06-22T03:35:37;0.30;;;0.30;;
16466;SDS011;8344;47.560;9.710;2023-06-22T03:38:03;0.20;;;0.20;;
16466;SDS011;8344;47.560;9.710;2023-06-22T03:40:28;0.20;;;0.20;;
16466;SDS011;8344;47.560;9.710;2023-06-22T03:42:54;0.20;;;0.20;;
16466;SDS011;8344;47.560;9.710;2023-06-22T03:45:19;0.10;;;0.10;;
16466;SDS011;8344;47.560;9.710;2023-06-22T03:47:45;0.10;;;0.10;;
16466;SDS011;8344;47.560;9.710;2023-06-22T03:50:10;0.20;;;0.20;;
16466;SDS011;8344;47.560;9.710;2023-06-22T03:52:35;0.20;;;0.20;;
16466;SDS011;8344;47.560;9.710;2023-06-22T03:55:01;0.10;;;0.10;;
16466;SDS011;8344;47.560;9.710;2023-06-22T03:57:26;0.22;;;0.22;;
16466;SDS011;8344;47.560;9.710;2023-06-22T03:59:52;0.28;;;0.28;;
16466;SDS011;8344;47.560;9.710;2023-06-22T04:02:19;0.20;;;0.20;;
16466;SDS011;8344;47.560;9.710;2023-06-22T04:04:44;0.25;;;0.25;;
16466;SDS011;8344;47.560;9.710;2023-06-22T04:07:09;0.13;;;0.13;;
16466;SDS011;8344;47.560;9.710;2023-06-22T04:09:34;0.20;;;0.20;;
16466;SDS011;8344;47.560;9.710;2023-06-22T04:12:01;0.10;;;0.10;;
16466;SDS011;8344;47.560;9.710;2023-06-22T04:14:26;0.10;;;0.10;;
16466;SDS011;8344;47.560;9.710;2023-06-22T04:16:52;0.20;;;0.20;;
16466;SDS011;8344;47.560;9.710;2023-06-22T04:19:17;0.20;;;0.20;;
16466;SDS011;8344;47.560;9.710;2023-06-22T04:21:43;0.10;;;0.10;;
16466;SDS011;8344;47.560;9.710;2023-06-22T04:24:09;0.10;;;0.10;;
16466;SDS011;8344;47.560;9.710;2023-06-22T04:26:35;0.20;;;0.20;;
16466;SDS011;8344;47.560;9.710;2023-06-22T04:29:02;0.13;;;0.13;;
16466;SDS011;8344;47.560;9.710;2023-06-22T04:31:30;0.20;;;0.20;;
16466;SDS011;8344;47.560;9.710;2023-06-22T04:33:57;0.20;;;0.20;;
16466;SDS011;8344;47.560;9.710;2023-06-22T04:36:30;0.20;;;0.20;;
16466;SDS011;8344;47.560;9.710;2023-06-22T04:39:01;0.20;;;0.20;;
16466;SDS011;8344;47.560;9.710;2023-06-22T04:41:27;0.20;;;0.20;;
16466;SDS011;8344;47.560;9.710;2023-06-22T04:43:53;0.20;;;0.20;;
16466;SDS011;8344;47.560;9.710;2023-06-22T04:46:24;0.20;;;0.20;;
16466;SDS011;8344;47.560;9.710;2023-06-22T04:48:50;0.20;;;0.20;;
16466;SDS011;8344;47.560;9.710;2023-06-22T04:51:15;0.20;;;0.20;;
16466;SDS011;8344;47.560;9.710;2023-06-22T04:53:40;0.10;;;0.10;;
16466;SDS011;8344;47.560;9.710;2023-06-22T04:56:06;0.20;;;0.20;;
16466;SDS011;8344;47.560;9.710;2023-06-22T04:58:31;0.20;;;0.20;;
16466;SDS011;8344;47.560;9.710;2023-06-22T05:00:57;0.20;;;0.20;;
16466;SDS011;8344;47.560;9.710;2023-06-22T05:03:22;0.10;;;0.10;;
16466;SDS011;8344;47.560;9.710;2023-06-22T05:05:50;0.20;;;0.20;;
16466;SDS011;8344;47.560;9.710;2023-06-22T05:08:16;0.10;;;0.10;;
16466;SDS011;8344;47.560;9.710;2023-06-22T05:10:41;0.20;;;0.20;;
16466;SDS011;8344;47.560;9.710;2023-06-22T05:13:06;0.20;;;0.20;;
16466;SDS011;8344;47.560;9.710;2023-06-22T05:15:32;0.10;;;0.10;;
16466;SDS011;8344;47.560;9.710;2023-06-22T05:18:01;0.10;;;0.10;;
16466;SDS011;8344;47.560;9.710;2023-06-22T05:20:30;0.20;;;0.20;;
16466;SDS011;8344;47.560;9.710;2023-06-22T05:22:55;0.10;;;0.10;;
16466;SDS011;8344;47.560;9.710;2023-06-22T05:25:20;0.10;;;0.10;;
16466;SDS011;8344;47.560;9.710;2023-06-22T05:27:46;0.20;;;0.20;;
16466;SDS011;8344;47.560;9.710;2023-06-22T05:30:11;0.10;;;0.10;;
16466;SDS011;8344;47.560;9.710;2023-06-22T05:32:36;0.20;;;0.20;;
16466;SDS011;8344;47.560;9.710;2023-06-22T05:35:02;0.20;;;0.20;;
16466;SDS011;8344;47.560;9.710;2023-06-22T05:37:28;0.10;;;0.10;;
16466;SDS011;8344;47.560;9.710;2023-06-22T05:39:54;0.10;;;0.10;;
16466;SDS011;8344;47.560;9.710;2023-06-22T05:42:20;0.10;;;0.10;;
16466;SDS011;8344;47.560;9.710;2023-06-22T05:44:46;0.20;;;0.20;;
16466;SDS011;8344;47.560;9.710;2023-06-22T05:47:12;0.10;;;0.10;;
16466;SDS011;8344;47.560;9.710;2023-06-22T05:49:37;0.15;;;0.15;;
16466;SDS011;8344;47.560;9.710;2023-06-22T05:52:02;0.10;;;0.10;;
16466;SDS011;8344;47.560;9.710;2023-06-22T05:54:28;0.10;;;0.10;;
16466;SDS011;8344;47.560;9.710;2023-06-22T05:56:53;0.10;;;0.10;;
16466;SDS011;8344;47.560;9.710;2023-06-22T05:59:19;0.10;;;0.10;;
16466;SDS011;8344;47.560;9.710;2023-06-22T06:01:44;0.00;;;0.00;;
16466;SDS011;8344;47.560;9.710;2023-06-22T06:04:09;0.10;;;0.10;;
16466;SDS011;8344;47.560;9.710;2023-06-22T06:06:35;0.10;;;0.10;;
16466;SDS011;8344;47.560;9.710;2023-06-22T06:09:02;0.00;;;0.00;;
16466;SDS011;8344;47.560;9.710;2023-06-22T06:11:30;0.00;;;0.00;;
16466;SDS011;8344;47.560;9.710;2023-06-22T06:13:56;0.10;;;0.10;;
16466;SDS011;8344;47.560;9.710;2023-06-22T06:16:21;0.00;;;0.00;;
16466;SDS011;8344;47.560;9.710;2023-06-22T06:18:47;0.00;;;0.00;;
16466;SDS011;8344;47.560;9.710;2023-06-22T06:21:14;0.00;;;0.00;;
16466;SDS011;8344;47.560;9.710;2023-06-22T06:23:39;0.00;;;0.00;;
16466;SDS011;8344;47.560;9.710;2023-06-22T06:26:05;0.00;;;0.00;;
16466;SDS011;8344;47.560;9.710;2023-06-22T06:28:32;0.00;;;0.00;;
16466;SDS011;8344;47.560;9.710;2023-06-22T06:30:57;0.00;;;0.00;;
16466;SDS011;8344;47.560;9.710;2023-06-22T06:33:22;0.00;;;0.00;;
16466;SDS011;8344;47.560;9.710;2023-06-22T06:35:48;0.00;;;0.00;;
16466;SDS011;8344;47.560;9.710;2023-06-22T06:38:14;0.00;;;0.00;;
16466;SDS011;8344;47.560;9.710;2023-06-22T06:40:39;0.00;;;0.00;;
16466;SDS011;8344;47.560;9.710;2023-06-22T06:43:04;0.00;;;0.00;;
16466;SDS011;8344;47.560;9.710;2023-06-22T06:45:29;0.00;;;0.00;;
16466;SDS011;8344;47.560;9.710;2023-06-22T06:47:57;0.00;;;0.00;;
16466;SDS011;8344;47.560;9.710;2023-06-22T06:50:23;0.00;;;0.00;;
16466;SDS011;8344;47.560;9.710;2023-06-22T06:52:48;0.00;;;0.00;;
16466;SDS011;8344;47.560;9.710;2023-06-22T06:55:15;0.00;;;0.00;;
16466;SDS011;8344;47.560;9.710;2023-06-22T06:57:41;0.10;;;0.10;;
16466;SDS011;8344;47.560;9.710;2023-06-22T07:00:08;0.00;;;0.00;;
16466;SDS011;8344;47.560;9.710;2023-06-22T07:02:37;0.03;;;0.03;;
16466;SDS011;8344;47.560;9.710;2023-06-22T07:05:04;0.00;;;0.00;;
16466;SDS011;8344;47.560;9.710;2023-06-22T07:07:30;0.00;;;0.00;;
16466;SDS011;8344;47.560;9.710;2023-06-22T07:09:56;0.10;;;0.10;;
16466;SDS011;8344;47.560;9.710;2023-06-22T07:12:22;0.00;;;0.00;;
16466;SDS011;8344;47.560;9.710;2023-06-22T07:14:47;0.00;;;0.00;;
16466;SDS011;8344;47.560;9.710;2023-06-22T07:17:13;0.10;;;0.10;;
16466;SDS011;8344;47.560;9.710;2023-06-22T07:19:38;0.10;;;0.10;;
16466;SDS011;8344;47.560;9.710;2023-06-22T07:22:03;0.10;;;0.10;;
16466;SDS011;8344;47.560;9.710;2023-06-22T07:24:29;0.10;;;0.10;;
16466;SDS011;8344;47.560;9.710;2023-06-22T07:26:54;0.10;;;0.10;;
16466;SDS011;8344;47.560;9.710;2023-06-22T07:29:20;0.10;;;0.10;;
16466;SDS011;8344;47.560;9.710;2023-06-22T07:31:46;0.10;;;0.10;;
16466;SDS011;8344;47.560;9.710;2023-06-22T07:34:11;0.10;;;0.10;;
16466;SDS011;8344;47.560;9.710;2023-06-22T07:36:37;0.13;;;0.13;;
16466;SDS011;8344;47.560;9.710;2023-06-22T07:39:02;0.10;;;0.10;;
16466;SDS011;8344;47.560;9.710;2023-06-22T07:41:28;0.13;;;0.13;;
16466;SDS011;8344;47.560;9.710;2023-06-22T07:43:54;0.10;;;0.10;;
16466;SDS011;8344;47.560;9.710;2023-06-22T07:46:19;0.10;;;0.10;;
16466;SDS011;8344;47.560;9.710;2023-06-22T07:48:45;0.10;;;0.10;;
16466;SDS011;8344;47.560;9.710;2023-06-22T07:51:10;0.20;;;0.20;;
16466;SDS011;8344;47.560;9.710;2023-06-22T07:53:39;0.10;;;0.10;;
16466;SDS011;8344;47.560;9.710;2023-06-22T07:56:09;0.10;;;0.10;;
16466;SDS011;8344;47.560;9.710;2023-06-22T07:58:35;0.10;;;0.10;;
16466;SDS011;8344;47.560;9.710;2023-06-22T08:01:00;0.17;;;0.17;;
16466;SDS011;8344;47.560;9.710;2023-06-22T08:03:26;0.13;;;0.13;;
16466;SDS011;8344;47.560;9.710;2023-06-22T08:05:51;0.10;;;0.10;;
16466;SDS011;8344;47.560;9.710;2023-06-22T08:08:17;0.10;;;0.10;;
16466;SDS011;8344;47.560;9.710;2023-06-22T08:10:42;0.10;;;0.10;;
16466;SDS011;8344;47.560;9.710;2023-06-22T08:13:08;0.10;;;0.10;;
16466;SDS011;8344;47.560;9.710;2023-06-22T08:15:33;0.13;;;0.13;;
16466;SDS011;8344;47.560;9.710;2023-06-22T08:17:58;0.20;;;0.20;;
16466;SDS011;8344;47.560;9.710;2023-06-22T08:20:25;0.10;;;0.10;;
16466;SDS011;8344;47.560;9.710;2023-06-22T08:22:50;0.20;;;0.20;;
16466;SDS011;8344;47.560;9.710;2023-06-22T08:25:16;0.10;;;0.10;;
16466;SDS011;8344;47.560;9.710;2023-06-22T08:27:44;0.10;;;0.10;;
16466;SDS011;8344;47.560;9.710;2023-06-22T08:30:11;0.10;;;0.10;;
16466;SDS011;8344;47.560;9.710;2023-06-22T08:32:37;0.10;;;0.10;;
16466;SDS011;8344;47.560;9.710;2023-06-22T08:35:02;0.10;;;0.10;;
16466;SDS011;8344;47.560;9.710;2023-06-22T08:37:27;0.17;;;0.17;;
16466;SDS011;8344;47.560;9.710;2023-06-22T08:39:56;0.10;;;0.10;;
16466;SDS011;8344;47.560;9.710;2023-06-22T08:42:23;0.10;;;0.10;;
16466;SDS011;8344;47.560;9.710;2023-06-22T08:44:49;0.10;;;0.10;;
16466;SDS011;8344;47.560;9.710;2023-06-22T08:47:15;0.10;;;0.10;;
16466;SDS011;8344;47.560;9.710;2023-06-22T08:49:40;0.10;;;0.10;;
16466;SDS011;8344;47.560;9.710;2023-06-22T08:52:06;0.10;;;0.10;;
16466;SDS011;8344;47.560;9.710;2023-06-22T08:54:32;0.20;;;0.20;;
16466;SDS011;8344;47.560;9.710;2023-06-22T08:56:59;0.13;;;0.13;;
16466;SDS011;8344;47.560;9.710;2023-06-22T08:59:25;0.20;;;0.20;;
16466;SDS011;8344;47.560;9.710;2023-06-22T09:01:50;0.20;;;0.20;;
16466;SDS011;8344;47.560;9.710;2023-06-22T09:04:16;0.10;;;0.10;;
16466;SDS011;8344;47.560;9.710;2023-06-22T09:06:41;0.20;;;0.20;;
16466;SDS011;8344;47.560;9.710;2023-06-22T09:09:10;0.10;;;0.10;;
16466;SDS011;8344;47.560;9.710;2023-06-22T09:11:37;0.10;;;0.10;;
16466;SDS011;8344;47.560;9.710;2023-06-22T09:14:02;0.10;;;0.10;;
16466;SDS011;8344;47.560;9.710;2023-06-22T09:16:28;0.10;;;0.10;;
16466;SDS011;8344;47.560;9.710;2023-06-22T09:18:54;0.10;;;0.10;;
16466;SDS011;8344;47.560;9.710;2023-06-22T09:21:19;0.10;;;0.10;;
16466;SDS011;8344;47.560;9.710;2023-06-22T09:23:44;0.17;;;0.17;;
16466;SDS011;8344;47.560;9.710;2023-06-22T09:26:11;0.20;;;0.20;;
16466;SDS011;8344;47.560;9.710;2023-06-22T09:28:37;0.10;;;0.10;;
16466;SDS011;8344;47.560;9.710;2023-06-22T09:31:02;0.13;;;0.13;;
16466;SDS011;8344;47.560;9.710;2023-06-22T09:33:28;0.20;;;0.20;;
16466;SDS011;8344;47.560;9.710;2023-06-22T09:35:53;0.10;;;0.10;;
16466;SDS011;8344;47.560;9.710;2023-06-22T09:38:18;0.10;;;0.10;;
16466;SDS011;8344;47.560;9.710;2023-06-22T09:40:44;0.00;;;0.00;;
16466;SDS011;8344;47.560;9.710;2023-06-22T09:43:09;0.10;;;0.10;;
16466;SDS011;8344;47.560;9.710;2023-06-22T09:45:34;0.10;;;0.10;;
16466;SDS011;8344;47.560;9.710;2023-06-22T09:48:00;0.10;;;0.10;;
16466;SDS011;8344;47.560;9.710;2023-06-22T09:50:25;0.10;;;0.10;;
16466;SDS011;8344;47.560;9.710;2023-06-22T09:52:50;0.10;;;0.10;;
16466;SDS011;8344;47.560;9.710;2023-06-22T09:55:19;0.10;;;0.10;;
16466;SDS011;8344;47.560;9.710;2023-06-22T09:57:47;0.10;;;0.10;;
16466;SDS011;8344;47.560;9.710;2023-06-22T10:00:13;0.10;;;0.10;;
16466;SDS011;8344;47.560;9.710;2023-06-22T10:02:43;0.10;;;0.10;;
16466;SDS011;8344;47.560;9.710;2023-06-22T10:05:09;0.10;;;0.10;;
16466;SDS011;8344;47.560;9.710;2023-06-22T10:07:34;0.10;;;0.10;;
16466;SDS011;8344;47.560;9.710;2023-06-22T10:09:59;0.03;;;0.03;;
16466;SDS011;8344;47.560;9.710;2023-06-22T10:12:26;0.00;;;0.00;;
16466;SDS011;8344;47.560;9.710;2023-06-22T10:14:52;0.10;;;0.10;;
16466;SDS011;8344;47.560;9.710;2023-06-22T10:17:17;0.10;;;0.10;;
16466;SDS011;8344;47.560;9.710;2023-06-22T10:19:43;0.10;;;0.10;;
16466;SDS011;8344;47.560;9.710;2023-06-22T10:22:08;0.10;;;0.10;;
16466;SDS011;8344;47.560;9.710;2023-06-22T10:24:33;0.03;;;0.03;;
16466;SDS011;8344;47.560;9.710;2023-06-22T10:26:58;0.00;;;0.00;;
16466;SDS011;8344;47.560;9.710;2023-06-22T10:29:24;0.10;;;0.10;;
16466;SDS011;8344;47.560;9.710;2023-06-22T10:31:49;0.10;;;0.10;;
16466;SDS011;8344;47.560;9.710;2023-06-22T10:34:14;0.10;;;0.10;;
16466;SDS011;8344;47.560;9.710;2023-06-22T10:36:39;0.10;;;0.10;;
16466;SDS011;8344;47.560;9.710;2023-06-22T10:39:05;0.00;;;0.00;;
16466;SDS011;8344;47.560;9.710;2023-06-22T10:41:30;0.00;;;0.00;;
16466;SDS011;8344;47.560;9.710;2023-06-22T10:43:56;0.00;;;0.00;;
16466;SDS011;8344;47.560;9.710;2023-06-22T10:46:21;0.10;;;0.10;;
16466;SDS011;8344;47.560;9.710;2023-06-22T10:48:46;0.00;;;0.00;;
16466;SDS011;8344;47.560;9.710;2023-06-22T10:51:12;0.00;;;0.00;;
16466;SDS011;8344;47.560;9.710;2023-06-22T10:53:37;0.00;;;0.00;;
16466;SDS011;8344;47.560;9.710;2023-06-22T10:56:02;0.10;;;0.10;;
16466;SDS011;8344;47.560;9.710;2023-06-22T10:58:28;0.00;;;0.00;;
16466;SDS011;8344;47.560;9.710;2023-06-22T11:00:53;0.10;;;0.10;;
16466;SDS011;8344;47.560;9.710;2023-06-22T11:03:18;0.10;;;0.10;;
16466;SDS011;8344;47.560;9.710;2023-06-22T11:05:44;0.10;;;0.10;;
16466;SDS011;8344;47.560;9.710;2023-06-22T11:08:09;0.10;;;0.10;;
16466;SDS011;8344;47.560;9.710;2023-06-22T11:10:34;0.10;;;0.10;;
16466;SDS011;8344;47.560;9.710;2023-06-22T11:12:59;0.05;;;0.05;;
16466;SDS011;8344;47.560;9.710;2023-06-22T11:15:25;0.10;;;0.10;;
16466;SDS011;8344;47.560;9.710;2023-06-22T11:17:50;0.00;;;0.00;;
16466;SDS011;8344;47.560;9.710;2023-06-22T11:20:16;0.08;;;0.08;;
16466;SDS011;8344;47.560;9.710;2023-06-22T11:22:41;0.03;;;0.03;;
16466;SDS011;8344;47.560;9.710;2023-06-22T11:25:07;0.10;;;0.10;;
16466;SDS011;8344;47.560;9.710;2023-06-22T11:27:33;0.10;;;0.10;;
16466;SDS011;8344;47.560;9.710;2023-06-22T11:29:58;0.10;;;0.10;;
16466;SDS011;8344;47.560;9.710;2023-06-22T11:32:23;0.10;;;0.10;;
16466;SDS011;8344;47.560;9.710;2023-06-22T11:34:49;0.00;;;0.00;;
16466;SDS011;8344;47.560;9.710;2023-06-22T11:37:15;0.00;;;0.00;;
16466;SDS011;8344;47.560;9.710;2023-06-22T11:39:40;0.05;;;0.05;;
16466;SDS011;8344;47.560;9.710;2023-06-22T11:42:06;0.00;;;0.00;;
16466;SDS011;8344;47.560;9.710;2023-06-22T11:44:31;0.00;;;0.00;;
16466;SDS011;8344;47.560;9.710;2023-06-22T11:46:57;0.08;;;0.08;;
16466;SDS011;8344;47.560;9.710;2023-06-22T11:49:22;0.10;;;0.10;;
16466;SDS011;8344;47.560;9.710;2023-06-22T11:51:47;0.10;;;0.10;;
16466;SDS011;8344;47.560;9.710;2023-06-22T11:54:12;0.00;;;0.00;;
16466;SDS011;8344;47.560;9.710;2023-06-22T11:56:38;0.10;;;0.10;;
16466;SDS011;8344;47.560;9.710;2023-06-22T11:59:03;0.10;;;0.10;;
16466;SDS011;8344;47.560;9.710;2023-06-22T12:01:28;0.00;;;0.00;;
16466;SDS011;8344;47.560;9.710;2023-06-22T12:03:54;0.10;;;0.10;;
16466;SDS011;8344;47.560;9.710;2023-06-22T12:06:19;0.00;;;0.00;;
16466;SDS011;8344;47.560;9.710;2023-06-22T12:08:44;0.08;;;0.08;;
16466;SDS011;8344;47.560;9.710;2023-06-22T12:11:10;0.00;;;0.00;;
16466;SDS011;8344;47.560;9.710;2023-06-22T12:13:35;0.00;;;0.00;;
16466;SDS011;8344;47.560;9.710;2023-06-22T12:16:00;0.00;;;0.00;;
16466;SDS011;8344;47.560;9.710;2023-06-22T12:18:26;0.00;;;0.00;;
16466;SDS011;8344;47.560;9.710;2023-06-22T12:20:51;0.00;;;0.00;;
16466;SDS011;8344;47.560;9.710;2023-06-22T12:23:16;0.10;;;0.10;;
16466;SDS011;8344;47.560;9.710;2023-06-22T12:25:41;0.10;;;0.10;;
16466;SDS011;8344;47.560;9.710;2023-06-22T12:28:07;0.10;;;0.10;;
16466;SDS011;8344;47.560;9.710;2023-06-22T12:30:32;0.10;;;0.10;;
16466;SDS011;8344;47.560;9.710;2023-06-22T12:32:58;0.10;;;0.10;;
16466;SDS011;8344;47.560;9.710;2023-06-22T12:35:23;0.10;;;0.10;;
16466;SDS011;8344;47.560;9.710;2023-06-22T12:37:49;0.10;;;0.10;;
16466;SDS011;8344;47.560;9.710;2023-06-22T12:40:14;0.10;;;0.10;;
16466;SDS011;8344;47.560;9.710;2023-06-22T12:42:39;0.10;;;0.10;;
16466;SDS011;8344;47.560;9.710;2023-06-22T12:45:05;0.10;;;0.10;;
16466;SDS011;8344;47.560;9.710;2023-06-22T12:47:31;0.10;;;0.10;;
16466;SDS011;8344;47.560;9.710;2023-06-22T12:49:56;0.10;;;0.10;;
16466;SDS011;8344;47.560;9.710;2023-06-22T12:52:21;0.00;;;0.00;;
16466;SDS011;8344;47.560;9.710;2023-06-22T12:54:47;0.10;;;0.10;;
16466;SDS011;8344;47.560;9.710;2023-06-22T12:57:13;0.10;;;0.10;;
16466;SDS011;8344;47.560;9.710;2023-06-22T12:59:38;0.00;;;0.00;;
16466;SDS011;8344;47.560;9.710;2023-06-22T13:02:03;0.10;;;0.10;;
16466;SDS011;8344;47.560;9.710;2023-06-22T13:04:29;0.00;;;0.00;;
16466;SDS011;8344;47.560;9.710;2023-06-22T13:06:54;0.10;;;0.10;;
16466;SDS011;8344;47.560;9.710;2023-06-22T13:09:19;0.00;;;0.00;;
16466;SDS011;8344;47.560;9.710;2023-06-22T13:11:45;0.10;;;0.10;;
16466;SDS011;8344;47.560;9.710;2023-06-22T13:14:10;0.00;;;0.00;;
16466;SDS011;8344;47.560;9.710;2023-06-22T13:16:36;0.10;;;0.10;;
16466;SDS011;8344;47.560;9.710;2023-06-22T13:19:01;0.10;;;0.10;;
16466;SDS011;8344;47.560;9.710;2023-06-22T13:21:26;0.10;;;0.10;;
16466;SDS011;8344;47.560;9.710;2023-06-22T13:23:52;0.10;;;0.10;;
16466;SDS011;8344;47.560;9.710;2023-06-22T13:26:17;0.10;;;0.10;;
16466;SDS011;8344;47.560;9.710;2023-06-22T13:28:42;0.00;;;0.00;;
16466;SDS011;8344;47.560;9.710;2023-06-22T13:31:08;0.03;;;0.03;;
16466;SDS011;8344;47.560;9.710;2023-06-22T13:33:33;0.00;;;0.00;;
16466;SDS011;8344;47.560;9.710;2023-06-22T13:35:58;0.00;;;0.00;;
16466;SDS011;8344;47.560;9.710;2023-06-22T13:38:24;0.08;;;0.08;;
16466;SDS011;8344;47.560;9.710;2023-06-22T13:40:49;0.10;;;0.10;;
16466;SDS011;8344;47.560;9.710;2023-06-22T13:43:15;0.00;;;0.00;;
16466;SDS011;8344;47.560;9.710;2023-06-22T13:45:41;0.00;;;0.00;;
16466;SDS011;8344;47.560;9.710;2023-06-22T13:48:06;0.10;;;0.10;;
16466;SDS011;8344;47.560;9.710;2023-06-22T13:50:32;0.00;;;0.00;;
16466;SDS011;8344;47.560;9.710;2023-06-22T13:52:57;0.00;;;0.00;;
16466;SDS011;8344;47.560;9.710;2023-06-22T13:55:22;0.00;;;0.00;;
16466;SDS011;8344;47.560;9.710;2023-06-22T13:57:48;0.00;;;0.00;;
16466;SDS011;8344;47.560;9.710;2023-06-22T14:00:13;0.00;;;0.00;;
16466;SDS011;8344;47.560;9.710;2023-06-22T14:02:39;0.00;;;0.00;;
16466;SDS011;8344;47.560;9.710;2023-06-22T14:05:05;0.10;;;0.10;;
16466;SDS011;8344;47.560;9.710;2023-06-22T14:07:31;0.00;;;0.00;;
16466;SDS011;8344;47.560;9.710;2023-06-22T14:09:56;0.00;;;0.00;;
16466;SDS011;8344;47.560;9.710;2023-06-22T14:12:22;0.00;;;0.00;;
16466;SDS011;8344;47.560;9.710;2023-06-22T14:14:48;0.00;;;0.00;;
16466;SDS011;8344;47.560;9.710;2023-06-22T14:17:13;0.10;;;0.10;;
16466;SDS011;8344;47.560;9.710;2023-06-22T14:19:38;0.10;;;0.10;;
16466;SDS011;8344;47.560;9.710;2023-06-22T14:22:04;0.00;;;0.00;;
16466;SDS011;8344;47.560;9.710;2023-06-22T14:24:29;0.05;;;0.05;;
16466;SDS011;8344;47.560;9.710;2023-06-22T14:26:55;0.00;;;0.00;;
16466;SDS011;8344;47.560;9.710;2023-06-22T14:29:21;0.10;;;0.10;;
16466;SDS011;8344;47.560;9.710;2023-06-22T14:31:48;0.03;;;0.03;;
16466;SDS011;8344;47.560;9.710;2023-06-22T14:34:14;0.00;;;0.00;;
16466;SDS011;8344;47.560;9.710;2023-06-22T14:36:39;0.10;;;0.10;;
16466;SDS011;8344;47.560;9.710;2023-06-22T14:39:05;0.10;;;0.10;;
16466;SDS011;8344;47.560;9.710;2023-06-22T14:41:30;0.10;;;0.10;;
16466;SDS011;8344;47.560;9.710;2023-06-22T14:43:55;0.10;;;0.10;;
16466;SDS011;8344;47.560;9.710;2023-06-22T14:46:21;0.10;;;0.10;;
16466;SDS011;8344;47.560;9.710;2023-06-22T14:48:46;0.03;;;0.03;;
16466;SDS011;8344;47.560;9.710;2023-06-22T14:51:11;0.00;;;0.00;;
16466;SDS011;8344;47.560;9.710;2023-06-22T14:53:37;0.10;;;0.10;;
16466;SDS011;8344;47.560;9.710;2023-06-22T14:56:03;0.10;;;0.10;;
16466;SDS011;8344;47.560;9.710;2023-06-22T14:58:31;0.00;;;0.00;;